sensor_id;sensor_type;location;lat;lon;timestamp;temperature;humidity
78988;DHT22;74752;44.786;37.680;2024-03-08T00:00:36;3.38;87.72
78988;DHT22;74752;44.786;37.680;2024-03-08T00:01:39;3.33;88.20
78988;DHT22;74752;44.786;37.680;2024-03-08T00:02:45;3.38;87.97
78988;DHT22;74752;44.786;37.680;2024-03-08T00:03:47;3.43;88.18
78988;DHT22;74752;44.786;37.680;2024-03-08T00:04:50;3.45;88.15
78988;DHT22;74752;44.786;37.680;2024-03-08T00:05:52;3.43;88.18
78988;DHT22;74752;44.786;37.680;2024-03-08T00:06:53;3.40;87.63
78988;DHT22;74752;44.786;37.680;2024-03-08T00:07:54;3.34;87.84
78988;DHT22;74752;44.786;37.680;2024-03-08T00:09:02;3.33;88.80
78988;DHT22;74752;44.786;37.680;2024-03-08T00:10:09;3.36;88.99
78988;DHT22;74752;44.786;37.680;2024-03-08T00:11:14;3.39;89.38
78988;DHT22;74752;44.786;37.680;2024-03-08T00:12:17;3.41;88.12
78988;DHT22;74752;44.786;37.680;2024-03-08T00:13:19;3.40;88.10
78988;DHT22;74752;44.786;37.680;2024-03-08T00:14:21;3.36;87.99
78988;DHT22;74752;44.786;37.680;2024-03-08T00:15:23;3.36;88.09
78988;DHT22;74752;44.786;37.680;2024-03-08T00:16:24;3.33;88.44
78988;DHT22;74752;44.786;37.680;2024-03-08T00:17:28;3.29;88.48
78988;DHT22;74752;44.786;37.680;2024-03-08T00:18:30;3.28;88.52
78988;DHT22;74752;44.786;37.680;2024-03-08T00:19:35;3.26;88.48
78988;DHT22;74752;44.786;37.680;2024-03-08T00:20:37;3.26;88.75
78988;DHT22;74752;44.786;37.680;2024-03-08T00:21:39;3.26;89.15
78988;DHT22;74752;44.786;37.680;2024-03-08T00:22:42;3.27;88.76
78988;DHT22;74752;44.786;37.680;2024-03-08T00:23:44;3.28;88.73
78988;DHT22;74752;44.786;37.680;2024-03-08T00:24:47;3.26;88.83
78988;DHT22;74752;44.786;37.680;2024-03-08T00:25:51;3.24;88.51
78988;DHT22;74752;44.786;37.680;2024-03-08T00:26:52;3.17;88.63
78988;DHT22;74752;44.786;37.680;2024-03-08T00:27:55;3.19;89.55
78988;DHT22;74752;44.786;37.680;2024-03-08T00:29:01;3.21;89.80
78988;DHT22;74752;44.786;37.680;2024-03-08T00:30:03;3.23;88.74
78988;DHT22;74752;44.786;37.680;2024-03-08T00:31:04;3.25;89.20
78988;DHT22;74752;44.786;37.680;2024-03-08T00:32:08;3.28;89.70
78988;DHT22;74752;44.786;37.680;2024-03-08T00:33:10;3.31;89.92
78988;DHT22;74752;44.786;37.680;2024-03-08T00:34:12;3.31;89.12
78988;DHT22;74752;44.786;37.680;2024-03-08T00:35:14;3.34;88.78
78988;DHT22;74752;44.786;37.680;2024-03-08T00:36:17;3.35;87.94
78988;DHT22;74752;44.786;37.680;2024-03-08T00:37:22;3.40;88.44
78988;DHT22;74752;44.786;37.680;2024-03-08T00:38:26;3.47;89.09
78988;DHT22;74752;44.786;37.680;2024-03-08T00:39:28;3.50;88.01
78988;DHT22;74752;44.786;37.680;2024-03-08T00:40:30;3.50;88.25
78988;DHT22;74752;44.786;37.680;2024-03-08T00:41:33;3.53;89.25
78988;DHT22;74752;44.786;37.680;2024-03-08T00:42:35;3.53;88.65
78988;DHT22;74752;44.786;37.680;2024-03-08T00:43:37;3.50;88.28
78988;DHT22;74752;44.786;37.680;2024-03-08T00:44:40;3.48;88.35
78988;DHT22;74752;44.786;37.680;2024-03-08T00:45:41;3.49;88.15
78988;DHT22;74752;44.786;37.680;2024-03-08T00:46:43;3.47;87.64
78988;DHT22;74752;44.786;37.680;2024-03-08T00:47:45;3.42;87.56
78988;DHT22;74752;44.786;37.680;2024-03-08T00:48:47;3.43;87.94
78988;DHT22;74752;44.786;37.680;2024-03-08T00:49:50;3.46;87.74
78988;DHT22;74752;44.786;37.680;2024-03-08T00:50:54;3.48;88.34
78988;DHT22;74752;44.786;37.680;2024-03-08T00:51:57;3.52;88.36
78988;DHT22;74752;44.786;37.680;2024-03-08T00:52:59;3.49;88.34
78988;DHT22;74752;44.786;37.680;2024-03-08T00:54:02;3.43;87.89
78988;DHT22;74752;44.786;37.680;2024-03-08T00:55:04;3.36;88.18
78988;DHT22;74752;44.786;37.680;2024-03-08T00:56:09;3.30;88.68
78988;DHT22;74752;44.786;37.680;2024-03-08T00:57:13;3.26;88.54
78988;DHT22;74752;44.786;37.680;2024-03-08T00:58:15;3.25;88.64
78988;DHT22;74752;44.786;37.680;2024-03-08T00:59:17;3.21;88.59
78988;DHT22;74752;44.786;37.680;2024-03-08T01:00:20;3.21;88.92
78988;DHT22;74752;44.786;37.680;2024-03-08T01:01:22;3.21;88.83
78988;DHT22;74752;44.786;37.680;2024-03-08T01:02:23;3.24;88.89
78988;DHT22;74752;44.786;37.680;2024-03-08T01:03:25;3.28;88.70
78988;DHT22;74752;44.786;37.680;2024-03-08T01:04:27;3.25;89.70
78988;DHT22;74752;44.786;37.680;2024-03-08T01:05:33;3.27;88.76
78988;DHT22;74752;44.786;37.680;2024-03-08T01:06:37;3.28;88.68
78988;DHT22;74752;44.786;37.680;2024-03-08T01:07:39;3.36;88.59
78988;DHT22;74752;44.786;37.680;2024-03-08T01:08:41;3.42;88.63
78988;DHT22;74752;44.786;37.680;2024-03-08T01:09:43;3.47;88.41
78988;DHT22;74752;44.786;37.680;2024-03-08T01:10:44;3.48;87.77
78988;DHT22;74752;44.786;37.680;2024-03-08T01:11:47;3.41;87.40
78988;DHT22;74752;44.786;37.680;2024-03-08T01:12:49;3.39;88.42
78988;DHT22;74752;44.786;37.680;2024-03-08T01:13:51;3.39;87.98
78988;DHT22;74752;44.786;37.680;2024-03-08T01:14:54;3.43;88.44
78988;DHT22;74752;44.786;37.680;2024-03-08T01:15:56;3.45;88.92
78988;DHT22;74752;44.786;37.680;2024-03-08T01:16:58;3.43;87.99
78988;DHT22;74752;44.786;37.680;2024-03-08T01:18:00;3.47;88.96
78988;DHT22;74752;44.786;37.680;2024-03-08T01:19:02;3.48;88.19
78988;DHT22;74752;44.786;37.680;2024-03-08T01:20:07;3.48;88.79
78988;DHT22;74752;44.786;37.680;2024-03-08T01:21:12;3.50;88.73
78988;DHT22;74752;44.786;37.680;2024-03-08T01:22:14;3.52;89.10
78988;DHT22;74752;44.786;37.680;2024-03-08T01:23:16;3.52;89.08
78988;DHT22;74752;44.786;37.680;2024-03-08T01:24:19;3.53;88.81
78988;DHT22;74752;44.786;37.680;2024-03-08T01:25:21;3.52;88.48
78988;DHT22;74752;44.786;37.680;2024-03-08T01:26:24;3.46;87.43
78988;DHT22;74752;44.786;37.680;2024-03-08T01:27:27;3.47;88.56
78988;DHT22;74752;44.786;37.680;2024-03-08T01:28:30;3.46;88.76
78988;DHT22;74752;44.786;37.680;2024-03-08T01:29:34;3.45;89.47
78988;DHT22;74752;44.786;37.680;2024-03-08T01:30:37;3.45;89.43
78988;DHT22;74752;44.786;37.680;2024-03-08T01:31:40;3.40;89.09
78988;DHT22;74752;44.786;37.680;2024-03-08T01:32:42;3.39;88.69
78988;DHT22;74752;44.786;37.680;2024-03-08T01:33:45;3.36;88.78
78988;DHT22;74752;44.786;37.680;2024-03-08T01:34:47;3.39;89.39
78988;DHT22;74752;44.786;37.680;2024-03-08T01:35:49;3.40;88.83
78988;DHT22;74752;44.786;37.680;2024-03-08T01:36:51;3.38;89.18
78988;DHT22;74752;44.786;37.680;2024-03-08T01:37:52;3.36;89.61
78988;DHT22;74752;44.786;37.680;2024-03-08T01:38:54;3.35;89.28
78988;DHT22;74752;44.786;37.680;2024-03-08T01:39:57;3.33;89.63
78988;DHT22;74752;44.786;37.680;2024-03-08T01:40:59;3.34;89.22
78988;DHT22;74752;44.786;37.680;2024-03-08T01:42:01;3.35;89.57
78988;DHT22;74752;44.786;37.680;2024-03-08T01:43:20;3.38;89.30
78988;DHT22;74752;44.786;37.680;2024-03-08T01:44:22;3.39;89.46
78988;DHT22;74752;44.786;37.680;2024-03-08T01:45:23;3.44;89.67
78988;DHT22;74752;44.786;37.680;2024-03-08T01:46:25;3.43;89.21
78988;DHT22;74752;44.786;37.680;2024-03-08T01:47:30;3.46;89.38
78988;DHT22;74752;44.786;37.680;2024-03-08T01:48:33;3.50;89.53
78988;DHT22;74752;44.786;37.680;2024-03-08T01:49:35;3.52;89.77
78988;DHT22;74752;44.786;37.680;2024-03-08T01:50:37;3.52;89.67
78988;DHT22;74752;44.786;37.680;2024-03-08T01:51:41;3.48;89.28
78988;DHT22;74752;44.786;37.680;2024-03-08T01:52:43;3.46;89.00
78988;DHT22;74752;44.786;37.680;2024-03-08T01:53:47;3.44;88.67
78988;DHT22;74752;44.786;37.680;2024-03-08T01:54:50;3.47;88.54
78988;DHT22;74752;44.786;37.680;2024-03-08T01:55:55;3.47;89.31
78988;DHT22;74752;44.786;37.680;2024-03-08T01:56:58;3.46;89.28
78988;DHT22;74752;44.786;37.680;2024-03-08T01:58:00;3.45;89.71
78988;DHT22;74752;44.786;37.680;2024-03-08T01:59:02;3.43;89.71
78988;DHT22;74752;44.786;37.680;2024-03-08T02:00:04;3.45;89.90
78988;DHT22;74752;44.786;37.680;2024-03-08T02:01:07;3.42;89.41
78988;DHT22;74752;44.786;37.680;2024-03-08T02:02:11;3.43;89.75
78988;DHT22;74752;44.786;37.680;2024-03-08T02:03:18;3.39;89.02
78988;DHT22;74752;44.786;37.680;2024-03-08T02:04:21;3.35;88.94
78988;DHT22;74752;44.786;37.680;2024-03-08T02:05:25;3.33;89.21
78988;DHT22;74752;44.786;37.680;2024-03-08T02:06:27;3.31;89.25
78988;DHT22;74752;44.786;37.680;2024-03-08T02:07:29;3.31;89.86
78988;DHT22;74752;44.786;37.680;2024-03-08T02:08:31;3.36;90.23
78988;DHT22;74752;44.786;37.680;2024-03-08T02:09:33;3.40;90.04
78988;DHT22;74752;44.786;37.680;2024-03-08T02:10:34;3.40;90.05
78988;DHT22;74752;44.786;37.680;2024-03-08T02:11:37;3.41;90.15
78988;DHT22;74752;44.786;37.680;2024-03-08T02:12:39;3.39;89.30
78988;DHT22;74752;44.786;37.680;2024-03-08T02:13:41;3.39;89.53
78988;DHT22;74752;44.786;37.680;2024-03-08T02:14:43;3.39;89.57
78988;DHT22;74752;44.786;37.680;2024-03-08T02:15:56;3.39;89.86
78988;DHT22;74752;44.786;37.680;2024-03-08T02:17:02;3.39;89.73
78988;DHT22;74752;44.786;37.680;2024-03-08T02:18:03;3.34;90.08
78988;DHT22;74752;44.786;37.680;2024-03-08T02:19:09;3.32;89.68
78988;DHT22;74752;44.786;37.680;2024-03-08T02:20:12;3.34;90.18
78988;DHT22;74752;44.786;37.680;2024-03-08T02:21:17;3.33;89.99
78988;DHT22;74752;44.786;37.680;2024-03-08T02:22:22;3.32;90.52
78988;DHT22;74752;44.786;37.680;2024-03-08T02:23:24;3.32;90.57
78988;DHT22;74752;44.786;37.680;2024-03-08T02:24:28;3.38;90.82
78988;DHT22;74752;44.786;37.680;2024-03-08T02:25:30;3.35;90.41
78988;DHT22;74752;44.786;37.680;2024-03-08T02:26:32;3.39;90.40
78988;DHT22;74752;44.786;37.680;2024-03-08T02:27:33;3.35;90.03
78988;DHT22;74752;44.786;37.680;2024-03-08T02:28:38;3.39;90.15
78988;DHT22;74752;44.786;37.680;2024-03-08T02:29:42;3.40;90.32
78988;DHT22;74752;44.786;37.680;2024-03-08T02:30:49;3.36;89.81
78988;DHT22;74752;44.786;37.680;2024-03-08T02:31:58;3.33;90.18
78988;DHT22;74752;44.786;37.680;2024-03-08T02:33:00;3.31;90.47
78988;DHT22;74752;44.786;37.680;2024-03-08T02:34:02;3.34;90.60
78988;DHT22;74752;44.786;37.680;2024-03-08T02:35:04;3.33;90.65
78988;DHT22;74752;44.786;37.680;2024-03-08T02:36:07;3.30;90.26
78988;DHT22;74752;44.786;37.680;2024-03-08T02:37:09;3.30;90.57
78988;DHT22;74752;44.786;37.680;2024-03-08T02:38:18;3.33;90.90
78988;DHT22;74752;44.786;37.680;2024-03-08T02:39:21;3.36;90.55
78988;DHT22;74752;44.786;37.680;2024-03-08T02:40:23;3.36;90.31
78988;DHT22;74752;44.786;37.680;2024-03-08T02:41:27;3.35;90.47
78988;DHT22;74752;44.786;37.680;2024-03-08T02:42:29;3.35;90.74
78988;DHT22;74752;44.786;37.680;2024-03-08T02:43:31;3.34;89.98
78988;DHT22;74752;44.786;37.680;2024-03-08T02:44:33;3.34;89.89
78988;DHT22;74752;44.786;37.680;2024-03-08T02:45:43;3.36;90.28
78988;DHT22;74752;44.786;37.680;2024-03-08T02:46:46;3.36;90.24
78988;DHT22;74752;44.786;37.680;2024-03-08T02:47:49;3.35;89.99
78988;DHT22;74752;44.786;37.680;2024-03-08T02:48:52;3.32;89.92
78988;DHT22;74752;44.786;37.680;2024-03-08T02:49:54;3.28;90.91
78988;DHT22;74752;44.786;37.680;2024-03-08T02:50:59;3.28;90.98
78988;DHT22;74752;44.786;37.680;2024-03-08T02:52:03;3.30;91.35
78988;DHT22;74752;44.786;37.680;2024-03-08T02:53:05;3.31;90.75
78988;DHT22;74752;44.786;37.680;2024-03-08T02:54:08;3.29;90.67
78988;DHT22;74752;44.786;37.680;2024-03-08T02:55:12;3.29;91.15
78988;DHT22;74752;44.786;37.680;2024-03-08T02:56:19;3.31;91.21
78988;DHT22;74752;44.786;37.680;2024-03-08T02:57:26;3.34;91.22
78988;DHT22;74752;44.786;37.680;2024-03-08T02:58:28;3.36;90.82
78988;DHT22;74752;44.786;37.680;2024-03-08T02:59:30;3.42;90.99
78988;DHT22;74752;44.786;37.680;2024-03-08T03:00:32;3.43;90.61
78988;DHT22;74752;44.786;37.680;2024-03-08T03:01:33;3.39;90.41
78988;DHT22;74752;44.786;37.680;2024-03-08T03:02:37;3.38;90.41
78988;DHT22;74752;44.786;37.680;2024-03-08T03:03:39;3.36;90.75
78988;DHT22;74752;44.786;37.680;2024-03-08T03:04:40;3.34;91.02
78988;DHT22;74752;44.786;37.680;2024-03-08T03:05:42;3.35;91.56
78988;DHT22;74752;44.786;37.680;2024-03-08T03:06:43;3.41;90.86
78988;DHT22;74752;44.786;37.680;2024-03-08T03:07:49;3.34;90.26
78988;DHT22;74752;44.786;37.680;2024-03-08T03:08:51;3.32;90.47
78988;DHT22;74752;44.786;37.680;2024-03-08T03:09:54;3.35;90.47
78988;DHT22;74752;44.786;37.680;2024-03-08T03:10:57;3.40;90.62
78988;DHT22;74752;44.786;37.680;2024-03-08T03:11:59;3.41;91.15
78988;DHT22;74752;44.786;37.680;2024-03-08T03:13:01;3.41;90.57
78988;DHT22;74752;44.786;37.680;2024-03-08T03:14:02;3.36;90.51
78988;DHT22;74752;44.786;37.680;2024-03-08T03:15:04;3.27;90.68
78988;DHT22;74752;44.786;37.680;2024-03-08T03:16:08;3.25;91.07
78988;DHT22;74752;44.786;37.680;2024-03-08T03:17:11;3.29;91.06
78988;DHT22;74752;44.786;37.680;2024-03-08T03:18:13;3.30;90.89
78988;DHT22;74752;44.786;37.680;2024-03-08T03:19:15;3.31;90.89
78988;DHT22;74752;44.786;37.680;2024-03-08T03:20:17;3.31;90.57
78988;DHT22;74752;44.786;37.680;2024-03-08T03:21:28;3.34;90.90
78988;DHT22;74752;44.786;37.680;2024-03-08T03:22:32;3.41;90.72
78988;DHT22;74752;44.786;37.680;2024-03-08T03:23:37;3.45;90.98
78988;DHT22;74752;44.786;37.680;2024-03-08T03:24:39;3.44;90.24
78988;DHT22;74752;44.786;37.680;2024-03-08T03:25:41;3.43;90.44
78988;DHT22;74752;44.786;37.680;2024-03-08T03:26:42;3.49;90.70
78988;DHT22;74752;44.786;37.680;2024-03-08T03:27:44;3.52;90.24
78988;DHT22;74752;44.786;37.680;2024-03-08T03:28:48;3.56;90.06
78988;DHT22;74752;44.786;37.680;2024-03-08T03:29:51;3.60;89.92
78988;DHT22;74752;44.786;37.680;2024-03-08T03:30:53;3.61;90.51
78988;DHT22;74752;44.786;37.680;2024-03-08T03:31:54;3.63;90.05
78988;DHT22;74752;44.786;37.680;2024-03-08T03:32:56;3.67;89.87
78988;DHT22;74752;44.786;37.680;2024-03-08T03:34:03;3.71;89.86
78988;DHT22;74752;44.786;37.680;2024-03-08T03:35:05;3.73;89.99
78988;DHT22;74752;44.786;37.680;2024-03-08T03:36:07;3.74;89.97
78988;DHT22;74752;44.786;37.680;2024-03-08T03:37:11;3.69;89.78
78988;DHT22;74752;44.786;37.680;2024-03-08T03:38:17;3.67;89.35
78988;DHT22;74752;44.786;37.680;2024-03-08T03:39:19;3.60;89.21
78988;DHT22;74752;44.786;37.680;2024-03-08T03:40:23;3.58;89.95
78988;DHT22;74752;44.786;37.680;2024-03-08T03:41:29;3.56;89.95
78988;DHT22;74752;44.786;37.680;2024-03-08T03:42:31;3.49;89.64
78988;DHT22;74752;44.786;37.680;2024-03-08T03:43:32;3.47;89.73
78988;DHT22;74752;44.786;37.680;2024-03-08T03:44:33;3.47;89.73
78988;DHT22;74752;44.786;37.680;2024-03-08T03:45:39;3.47;89.73
78988;DHT22;74752;44.786;37.680;2024-03-08T03:46:42;3.48;89.72
78988;DHT22;74752;44.786;37.680;2024-03-08T03:47:52;3.48;89.62
78988;DHT22;74752;44.786;37.680;2024-03-08T03:48:54;3.50;89.34
78988;DHT22;74752;44.786;37.680;2024-03-08T03:49:57;3.52;89.24
78988;DHT22;74752;44.786;37.680;2024-03-08T03:51:03;3.52;89.38
78988;DHT22;74752;44.786;37.680;2024-03-08T03:52:10;3.55;88.96
78988;DHT22;74752;44.786;37.680;2024-03-08T03:53:12;3.54;88.89
78988;DHT22;74752;44.786;37.680;2024-03-08T03:54:15;3.56;89.14
78988;DHT22;74752;44.786;37.680;2024-03-08T03:55:17;3.54;89.06
78988;DHT22;74752;44.786;37.680;2024-03-08T03:56:27;3.48;89.41
78988;DHT22;74752;44.786;37.680;2024-03-08T03:57:29;3.48;89.37
78988;DHT22;74752;44.786;37.680;2024-03-08T03:58:31;3.44;89.03
78988;DHT22;74752;44.786;37.680;2024-03-08T03:59:33;3.40;88.84
78988;DHT22;74752;44.786;37.680;2024-03-08T04:00:34;3.36;89.46
78988;DHT22;74752;44.786;37.680;2024-03-08T04:01:36;3.36;89.58
78988;DHT22;74752;44.786;37.680;2024-03-08T04:02:43;3.36;89.54
78988;DHT22;74752;44.786;37.680;2024-03-08T04:03:44;3.32;89.70
78988;DHT22;74752;44.786;37.680;2024-03-08T04:04:48;3.34;89.83
78988;DHT22;74752;44.786;37.680;2024-03-08T04:05:50;3.35;89.64
78988;DHT22;74752;44.786;37.680;2024-03-08T04:06:53;3.39;89.98
78988;DHT22;74752;44.786;37.680;2024-03-08T04:07:54;3.40;89.85
78988;DHT22;74752;44.786;37.680;2024-03-08T04:08:57;3.39;89.09
78988;DHT22;74752;44.786;37.680;2024-03-08T04:09:59;3.40;89.00
78988;DHT22;74752;44.786;37.680;2024-03-08T04:11:01;3.41;89.21
78988;DHT22;74752;44.786;37.680;2024-03-08T04:12:04;3.45;88.90
78988;DHT22;74752;44.786;37.680;2024-03-08T04:13:07;3.50;88.54
78988;DHT22;74752;44.786;37.680;2024-03-08T04:14:10;3.55;89.50
78988;DHT22;74752;44.786;37.680;2024-03-08T04:15:13;3.57;89.25
78988;DHT22;74752;44.786;37.680;2024-03-08T04:16:17;3.53;88.30
78988;DHT22;74752;44.786;37.680;2024-03-08T04:17:20;3.53;88.10
78988;DHT22;74752;44.786;37.680;2024-03-08T04:18:22;3.54;88.94
78988;DHT22;74752;44.786;37.680;2024-03-08T04:19:23;3.55;88.31
78988;DHT22;74752;44.786;37.680;2024-03-08T04:20:47;3.47;88.18
78988;DHT22;74752;44.786;37.680;2024-03-08T04:21:49;3.38;88.06
78988;DHT22;74752;44.786;37.680;2024-03-08T04:22:51;3.34;88.38
78988;DHT22;74752;44.786;37.680;2024-03-08T04:23:52;3.28;88.47
78988;DHT22;74752;44.786;37.680;2024-03-08T04:24:54;3.21;88.62
78988;DHT22;74752;44.786;37.680;2024-03-08T04:25:59;3.18;89.09
78988;DHT22;74752;44.786;37.680;2024-03-08T04:27:01;3.21;89.12
78988;DHT22;74752;44.786;37.680;2024-03-08T04:28:02;3.24;89.64
78988;DHT22;74752;44.786;37.680;2024-03-08T04:29:04;3.27;88.89
78988;DHT22;74752;44.786;37.680;2024-03-08T04:30:08;3.27;88.56
78988;DHT22;74752;44.786;37.680;2024-03-08T04:31:10;3.28;88.58
78988;DHT22;74752;44.786;37.680;2024-03-08T04:32:12;3.29;88.94
78988;DHT22;74752;44.786;37.680;2024-03-08T04:33:14;3.28;89.36
78988;DHT22;74752;44.786;37.680;2024-03-08T04:34:18;3.27;89.10
78988;DHT22;74752;44.786;37.680;2024-03-08T04:35:22;3.28;88.51
78988;DHT22;74752;44.786;37.680;2024-03-08T04:36:24;3.29;88.45
78988;DHT22;74752;44.786;37.680;2024-03-08T04:37:27;3.28;88.73
78988;DHT22;74752;44.786;37.680;2024-03-08T04:38:31;3.26;88.48
78988;DHT22;74752;44.786;37.680;2024-03-08T04:39:35;3.21;88.99
78988;DHT22;74752;44.786;37.680;2024-03-08T04:40:37;3.17;88.70
78988;DHT22;74752;44.786;37.680;2024-03-08T04:41:39;3.12;88.80
78988;DHT22;74752;44.786;37.680;2024-03-08T04:42:42;3.12;89.21
78988;DHT22;74752;44.786;37.680;2024-03-08T04:43:44;3.18;89.96
78988;DHT22;74752;44.786;37.680;2024-03-08T04:44:47;3.20;89.65
78988;DHT22;74752;44.786;37.680;2024-03-08T04:45:49;3.21;90.16
78988;DHT22;74752;44.786;37.680;2024-03-08T04:46:51;3.25;90.10
78988;DHT22;74752;44.786;37.680;2024-03-08T04:47:53;3.24;89.83
78988;DHT22;74752;44.786;37.680;2024-03-08T04:48:54;3.24;89.72
78988;DHT22;74752;44.786;37.680;2024-03-08T04:49:56;3.18;88.99
78988;DHT22;74752;44.786;37.680;2024-03-08T04:50:59;3.20;89.78
78988;DHT22;74752;44.786;37.680;2024-03-08T04:52:02;3.18;89.69
78988;DHT22;74752;44.786;37.680;2024-03-08T04:53:04;3.17;89.64
78988;DHT22;74752;44.786;37.680;2024-03-08T04:54:12;3.24;89.73
78988;DHT22;74752;44.786;37.680;2024-03-08T04:55:13;3.29;89.54
78988;DHT22;74752;44.786;37.680;2024-03-08T04:56:19;3.28;89.36
78988;DHT22;74752;44.786;37.680;2024-03-08T04:57:24;3.27;89.07
78988;DHT22;74752;44.786;37.680;2024-03-08T04:58:29;3.26;89.09
78988;DHT22;74752;44.786;37.680;2024-03-08T04:59:31;3.26;89.23
78988;DHT22;74752;44.786;37.680;2024-03-08T05:00:35;3.26;89.01
78988;DHT22;74752;44.786;37.680;2024-03-08T05:01:37;3.24;89.41
78988;DHT22;74752;44.786;37.680;2024-03-08T05:02:39;3.19;89.17
78988;DHT22;74752;44.786;37.680;2024-03-08T05:03:47;3.16;89.12
78988;DHT22;74752;44.786;37.680;2024-03-08T05:04:54;3.13;89.38
78988;DHT22;74752;44.786;37.680;2024-03-08T05:05:57;3.12;89.16
78988;DHT22;74752;44.786;37.680;2024-03-08T05:06:59;3.13;88.58
78988;DHT22;74752;44.786;37.680;2024-03-08T05:08:02;3.13;88.42
78988;DHT22;74752;44.786;37.680;2024-03-08T05:09:05;3.14;88.15
78988;DHT22;74752;44.786;37.680;2024-03-08T05:10:14;3.17;88.10
78988;DHT22;74752;44.786;37.680;2024-03-08T05:11:19;3.23;88.31
78988;DHT22;74752;44.786;37.680;2024-03-08T05:12:21;3.27;89.30
78988;DHT22;74752;44.786;37.680;2024-03-08T05:13:30;3.33;88.97
78988;DHT22;74752;44.786;37.680;2024-03-08T05:14:32;3.36;88.38
78988;DHT22;74752;44.786;37.680;2024-03-08T05:15:33;3.36;88.19
78988;DHT22;74752;44.786;37.680;2024-03-08T05:16:36;3.40;88.55
78988;DHT22;74752;44.786;37.680;2024-03-08T05:17:38;3.41;88.90
78988;DHT22;74752;44.786;37.680;2024-03-08T05:18:41;3.36;88.64
78988;DHT22;74752;44.786;37.680;2024-03-08T05:19:45;3.30;87.63
78988;DHT22;74752;44.786;37.680;2024-03-08T05:20:47;3.33;89.13
78988;DHT22;74752;44.786;37.680;2024-03-08T05:21:50;3.34;88.73
78988;DHT22;74752;44.786;37.680;2024-03-08T05:22:52;3.40;88.80
78988;DHT22;74752;44.786;37.680;2024-03-08T05:23:54;3.44;88.66
78988;DHT22;74752;44.786;37.680;2024-03-08T05:24:58;3.49;88.08
78988;DHT22;74752;44.786;37.680;2024-03-08T05:26:00;3.56;89.12
78988;DHT22;74752;44.786;37.680;2024-03-08T05:27:02;3.61;88.35
78988;DHT22;74752;44.786;37.680;2024-03-08T05:28:04;3.70;88.57
78988;DHT22;74752;44.786;37.680;2024-03-08T05:29:10;3.73;87.08
78988;DHT22;74752;44.786;37.680;2024-03-08T05:30:12;3.68;86.46
78988;DHT22;74752;44.786;37.680;2024-03-08T05:31:22;3.67;87.28
78988;DHT22;74752;44.786;37.680;2024-03-08T05:32:24;3.60;87.48
78988;DHT22;74752;44.786;37.680;2024-03-08T05:33:26;3.57;87.22
78988;DHT22;74752;44.786;37.680;2024-03-08T05:34:28;3.55;88.07
78988;DHT22;74752;44.786;37.680;2024-03-08T05:35:33;3.53;87.22
78988;DHT22;74752;44.786;37.680;2024-03-08T05:36:35;3.58;87.65
78988;DHT22;74752;44.786;37.680;2024-03-08T05:37:37;3.62;87.41
78988;DHT22;74752;44.786;37.680;2024-03-08T05:38:39;3.65;87.80
78988;DHT22;74752;44.786;37.680;2024-03-08T05:39:44;3.72;87.79
78988;DHT22;74752;44.786;37.680;2024-03-08T05:40:46;3.79;86.26
78988;DHT22;74752;44.786;37.680;2024-03-08T05:41:50;3.86;86.51
78988;DHT22;74752;44.786;37.680;2024-03-08T05:42:52;3.94;86.58
78988;DHT22;74752;44.786;37.680;2024-03-08T05:43:53;3.95;84.35
78988;DHT22;74752;44.786;37.680;2024-03-08T05:44:55;3.97;84.79
78988;DHT22;74752;44.786;37.680;2024-03-08T05:45:58;4.03;86.50
78988;DHT22;74752;44.786;37.680;2024-03-08T05:47:00;4.04;86.38
78988;DHT22;74752;44.786;37.680;2024-03-08T05:48:07;3.98;85.11
78988;DHT22;74752;44.786;37.680;2024-03-08T05:49:13;3.91;86.03
78988;DHT22;74752;44.786;37.680;2024-03-08T05:50:15;3.93;84.70
78988;DHT22;74752;44.786;37.680;2024-03-08T05:51:17;3.93;86.24
78988;DHT22;74752;44.786;37.680;2024-03-08T05:52:29;3.94;87.06
78988;DHT22;74752;44.786;37.680;2024-03-08T05:53:30;3.95;86.61
78988;DHT22;74752;44.786;37.680;2024-03-08T05:54:33;3.93;87.09
78988;DHT22;74752;44.786;37.680;2024-03-08T05:55:37;3.87;85.28
78988;DHT22;74752;44.786;37.680;2024-03-08T05:56:39;3.76;85.64
78988;DHT22;74752;44.786;37.680;2024-03-08T05:57:44;3.73;86.33
78988;DHT22;74752;44.786;37.680;2024-03-08T05:59:08;3.74;86.32
78988;DHT22;74752;44.786;37.680;2024-03-08T06:00:11;3.78;86.06
78988;DHT22;74752;44.786;37.680;2024-03-08T06:01:17;3.80;85.08
78988;DHT22;74752;44.786;37.680;2024-03-08T06:02:19;3.82;85.01
78988;DHT22;74752;44.786;37.680;2024-03-08T06:03:21;3.80;85.98
78988;DHT22;74752;44.786;37.680;2024-03-08T06:04:23;3.80;86.51
78988;DHT22;74752;44.786;37.680;2024-03-08T06:05:24;3.78;85.87
78988;DHT22;74752;44.786;37.680;2024-03-08T06:06:28;3.79;85.58
78988;DHT22;74752;44.786;37.680;2024-03-08T06:07:31;3.77;84.55
78988;DHT22;74752;44.786;37.680;2024-03-08T06:08:33;3.71;85.35
78988;DHT22;74752;44.786;37.680;2024-03-08T06:09:35;3.74;85.43
78988;DHT22;74752;44.786;37.680;2024-03-08T06:10:37;3.80;85.22
78988;DHT22;74752;44.786;37.680;2024-03-08T06:11:39;3.87;84.89
78988;DHT22;74752;44.786;37.680;2024-03-08T06:12:42;3.90;85.83
78988;DHT22;74752;44.786;37.680;2024-03-08T06:13:44;3.97;85.77
78988;DHT22;74752;44.786;37.680;2024-03-08T06:14:46;4.01;85.46
78988;DHT22;74752;44.786;37.680;2024-03-08T06:15:48;4.03;85.06
78988;DHT22;74752;44.786;37.680;2024-03-08T06:16:51;4.02;85.80
78988;DHT22;74752;44.786;37.680;2024-03-08T06:17:53;3.97;84.53
78988;DHT22;74752;44.786;37.680;2024-03-08T06:18:58;3.97;85.67
78988;DHT22;74752;44.786;37.680;2024-03-08T06:20:03;3.99;85.53
78988;DHT22;74752;44.786;37.680;2024-03-08T06:21:12;4.00;84.35
78988;DHT22;74752;44.786;37.680;2024-03-08T06:22:14;3.98;84.69
78988;DHT22;74752;44.786;37.680;2024-03-08T06:23:19;3.94;84.61
78988;DHT22;74752;44.786;37.680;2024-03-08T06:24:21;3.92;84.48
78988;DHT22;74752;44.786;37.680;2024-03-08T06:25:22;3.89;84.21
78988;DHT22;74752;44.786;37.680;2024-03-08T06:26:24;3.91;84.24
78988;DHT22;74752;44.786;37.680;2024-03-08T06:27:27;3.92;84.07
78988;DHT22;74752;44.786;37.680;2024-03-08T06:28:29;3.99;85.31
78988;DHT22;74752;44.786;37.680;2024-03-08T06:29:31;4.06;85.48
78988;DHT22;74752;44.786;37.680;2024-03-08T06:30:32;4.08;83.74
78988;DHT22;74752;44.786;37.680;2024-03-08T06:31:33;4.12;84.30
78988;DHT22;74752;44.786;37.680;2024-03-08T06:32:41;4.20;82.91
78988;DHT22;74752;44.786;37.680;2024-03-08T06:33:47;4.15;82.59
78988;DHT22;74752;44.786;37.680;2024-03-08T06:34:51;4.13;82.71
78988;DHT22;74752;44.786;37.680;2024-03-08T06:35:53;4.17;83.48
78988;DHT22;74752;44.786;37.680;2024-03-08T06:37:01;4.16;82.41
78988;DHT22;74752;44.786;37.680;2024-03-08T06:38:07;4.19;83.32
78988;DHT22;74752;44.786;37.680;2024-03-08T06:39:09;4.21;82.67